sensor_id;sensor_type;location;lat;lon;timestamp;pressure;altitude;pressure_sealevel;temperature;humidity
60676;BME280;46716;38.014;-7.874;2022-08-25T00:01:42;99908.28;;;21.60;77.11
60676;BME280;46716;38.014;-7.874;2022-08-25T00:03:44;99903.47;;;21.54;77.46
60676;BME280;46716;38.014;-7.874;2022-08-25T00:05:45;99893.28;;;21.47;77.73
60676;BME280;46716;38.014;-7.874;2022-08-25T00:07:46;99904.59;;;21.51;77.81
60676;BME280;46716;38.014;-7.874;2022-08-25T00:09:46;99899.38;;;21.50;77.88
60676;BME280;46716;38.014;-7.874;2022-08-25T00:11:48;99901.34;;;21.47;77.85
60676;BME280;46716;38.014;-7.874;2022-08-25T00:13:52;99887.34;;;21.34;78.00
60676;BME280;46716;38.014;-7.874;2022-08-25T00:15:54;99885.66;;;21.33;78.53
60676;BME280;46716;38.014;-7.874;2022-08-25T00:17:55;99893.56;;;21.34;78.76
60676;BME280;46716;38.014;-7.874;2022-08-25T00:19:56;99884.84;;;21.32;78.73
60676;BME280;46716;38.014;-7.874;2022-08-25T00:21:58;99884.97;;;21.31;78.76
60676;BME280;46716;38.014;-7.874;2022-08-25T00:24:01;99883.13;;;21.31;78.93
60676;BME280;46716;38.014;-7.874;2022-08-25T00:26:02;99873.22;;;21.22;78.80
60676;BME280;46716;38.014;-7.874;2022-08-25T00:28:03;99880.28;;;21.23;78.98
60676;BME280;46716;38.014;-7.874;2022-08-25T00:30:05;99874.75;;;21.15;79.35
60676;BME280;46716;38.014;-7.874;2022-08-25T00:32:06;99884.09;;;21.10;79.58
60676;BME280;46716;38.014;-7.874;2022-08-25T00:34:10;99891.59;;;21.07;79.78
60676;BME280;46716;38.014;-7.874;2022-08-25T00:36:12;99888.31;;;21.03;80.27
60676;BME280;46716;38.014;-7.874;2022-08-25T00:38:13;99889.47;;;21.01;80.48
60676;BME280;46716;38.014;-7.874;2022-08-25T00:40:16;99893.09;;;21.00;80.55
60676;BME280;46716;38.014;-7.874;2022-08-25T00:42:16;99886.78;;;21.01;80.48
60676;BME280;46716;38.014;-7.874;2022-08-25T00:44:20;99883.66;;;20.95;80.89
60676;BME280;46716;38.014;-7.874;2022-08-25T00:46:30;99891.00;;;20.93;80.69
60676;BME280;46716;38.014;-7.874;2022-08-25T00:48:34;99881.78;;;20.86;81.18
60676;BME280;46716;38.014;-7.874;2022-08-25T00:50:34;99876.81;;;20.81;81.40
60676;BME280;46716;38.014;-7.874;2022-08-25T00:52:53;99888.13;;;20.85;81.53
60676;BME280;46716;38.014;-7.874;2022-08-25T00:54:59;99885.69;;;20.82;81.55
60676;BME280;46716;38.014;-7.874;2022-08-25T00:57:03;99883.28;;;20.79;81.65
60676;BME280;46716;38.014;-7.874;2022-08-25T00:59:04;99878.22;;;20.76;81.92
60676;BME280;46716;38.014;-7.874;2022-08-25T01:01:05;99879.59;;;20.70;81.96
60676;BME280;46716;38.014;-7.874;2022-08-25T01:03:06;99875.38;;;20.67;82.12
60676;BME280;46716;38.014;-7.874;2022-08-25T01:05:07;99877.06;;;20.68;82.39
60676;BME280;46716;38.014;-7.874;2022-08-25T01:07:08;99876.03;;;20.59;82.34
60676;BME280;46716;38.014;-7.874;2022-08-25T01:09:11;99873.22;;;20.51;82.82
60676;BME280;46716;38.014;-7.874;2022-08-25T01:11:13;99876.16;;;20.48;83.08
60676;BME280;46716;38.014;-7.874;2022-08-25T01:13:21;99873.31;;;20.40;83.06
60676;BME280;46716;38.014;-7.874;2022-08-25T01:15:23;99871.72;;;20.37;83.73
60676;BME280;46716;38.014;-7.874;2022-08-25T01:17:24;99871.72;;;20.37;84.20
60676;BME280;46716;38.014;-7.874;2022-08-25T01:19:28;99867.63;;;20.33;84.10
60676;BME280;46716;38.014;-7.874;2022-08-25T01:21:35;99877.38;;;20.34;84.41
60676;BME280;46716;38.014;-7.874;2022-08-25T01:23:36;99881.16;;;20.31;84.37
60676;BME280;46716;38.014;-7.874;2022-08-25T01:28:09;99872.09;;;20.22;84.76
60676;BME280;46716;38.014;-7.874;2022-08-25T01:30:10;99872.25;;;20.21;85.31
60676;BME280;46716;38.014;-7.874;2022-08-25T01:32:12;99870.69;;;20.18;85.36
60676;BME280;46716;38.014;-7.874;2022-08-25T01:34:15;99866.31;;;20.17;85.64
60676;BME280;46716;38.014;-7.874;2022-08-25T01:36:20;99878.00;;;20.16;85.65
60676;BME280;46716;38.014;-7.874;2022-08-25T01:38:22;99868.94;;;20.07;85.79
60676;BME280;46716;38.014;-7.874;2022-08-25T01:40:22;99874.75;;;20.13;85.94
60676;BME280;46716;38.014;-7.874;2022-08-25T01:42:46;99875.16;;;20.08;86.05
60676;BME280;46716;38.014;-7.874;2022-08-25T01:44:52;99864.19;;;20.00;86.39
60676;BME280;46716;38.014;-7.874;2022-08-25T01:46:53;99872.22;;;20.00;86.38
60676;BME280;46716;38.014;-7.874;2022-08-25T01:48:54;99873.00;;;20.02;86.61
60676;BME280;46716;38.014;-7.874;2022-08-25T01:50:55;99865.31;;;19.97;86.38
60676;BME280;46716;38.014;-7.874;2022-08-25T01:53:03;99871.78;;;19.94;86.70
60676;BME280;46716;38.014;-7.874;2022-08-25T01:55:06;99868.66;;;19.89;86.94
60676;BME280;46716;38.014;-7.874;2022-08-25T01:57:07;99866.97;;;19.88;87.24
60676;BME280;46716;38.014;-7.874;2022-08-25T01:59:08;99867.94;;;19.87;87.37
60676;BME280;46716;38.014;-7.874;2022-08-25T02:01:13;99877.53;;;19.90;87.30
60676;BME280;46716;38.014;-7.874;2022-08-25T02:03:16;99879.78;;;19.84;87.28
60676;BME280;46716;38.014;-7.874;2022-08-25T02:05:18;99880.88;;;19.82;87.28
60676;BME280;46716;38.014;-7.874;2022-08-25T02:07:19;99873.84;;;19.81;87.46
60676;BME280;46716;38.014;-7.874;2022-08-25T02:09:20;99883.56;;;19.82;87.46
60676;BME280;46716;38.014;-7.874;2022-08-25T02:11:21;99889.16;;;19.79;87.75
60676;BME280;46716;38.014;-7.874;2022-08-25T02:13:23;99890.41;;;19.75;87.91
60676;BME280;46716;38.014;-7.874;2022-08-25T02:15:24;99888.00;;;19.71;88.11
60676;BME280;46716;38.014;-7.874;2022-08-25T02:17:25;99885.56;;;19.68;88.33
60676;BME280;46716;38.014;-7.874;2022-08-25T02:19:26;99879.66;;;19.65;88.38
60676;BME280;46716;38.014;-7.874;2022-08-25T02:21:30;99881.84;;;19.59;88.48
60676;BME280;46716;38.014;-7.874;2022-08-25T02:23:32;99878.47;;;19.57;88.69
60676;BME280;46716;38.014;-7.874;2022-08-25T02:25:33;99890.16;;;19.56;88.84
60676;BME280;46716;38.014;-7.874;2022-08-25T02:27:34;99890.28;;;19.55;88.91
60676;BME280;46716;38.014;-7.874;2022-08-25T02:29:35;99885.16;;;19.52;89.13
60676;BME280;46716;38.014;-7.874;2022-08-25T02:31:36;99890.81;;;19.49;89.32
60676;BME280;46716;38.014;-7.874;2022-08-25T02:33:37;99885.72;;;19.45;89.64
60676;BME280;46716;38.014;-7.874;2022-08-25T02:35:38;99888.66;;;19.42;89.72
60676;BME280;46716;38.014;-7.874;2022-08-25T02:37:40;99888.16;;;19.37;90.14
60676;BME280;46716;38.014;-7.874;2022-08-25T02:39:40;99888.53;;;19.32;90.08
60676;BME280;46716;38.014;-7.874;2022-08-25T02:41:41;99895.13;;;19.28;90.36
60676;BME280;46716;38.014;-7.874;2022-08-25T02:43:43;99892.72;;;19.25;90.56
60676;BME280;46716;38.014;-7.874;2022-08-25T02:45:46;99882.13;;;19.24;90.64
60676;BME280;46716;38.014;-7.874;2022-08-25T02:47:47;99885.91;;;19.21;90.73
60676;BME280;46716;38.014;-7.874;2022-08-25T02:49:47;99888.22;;;19.26;91.00
60676;BME280;46716;38.014;-7.874;2022-08-25T02:51:48;99891.03;;;19.24;90.77
60676;BME280;46716;38.014;-7.874;2022-08-25T02:53:50;99890.16;;;19.24;90.70
60676;BME280;46716;38.014;-7.874;2022-08-25T02:55:51;99894.81;;;19.21;90.99
60676;BME280;46716;38.014;-7.874;2022-08-25T02:57:52;99887.75;;;19.20;90.98
60676;BME280;46716;38.014;-7.874;2022-08-25T02:59:53;99886.28;;;19.16;91.32
60676;BME280;46716;38.014;-7.874;2022-08-25T03:01:54;99895.06;;;19.18;91.43
60676;BME280;46716;38.014;-7.874;2022-08-25T03:03:56;99895.88;;;19.19;91.37
60676;BME280;46716;38.014;-7.874;2022-08-25T03:05:57;99888.00;;;19.17;91.41
60676;BME280;46716;38.014;-7.874;2022-08-25T03:07:58;99906.72;;;19.17;91.33
60676;BME280;46716;38.014;-7.874;2022-08-25T03:10:04;99903.22;;;19.17;91.39
60676;BME280;46716;38.014;-7.874;2022-08-25T03:12:05;99907.81;;;19.15;91.53
60676;BME280;46716;38.014;-7.874;2022-08-25T03:14:07;99906.00;;;19.15;91.56
60676;BME280;46716;38.014;-7.874;2022-08-25T03:16:10;99909.69;;;19.14;91.83
60676;BME280;46716;38.014;-7.874;2022-08-25T03:18:11;99908.81;;;19.14;91.89
60676;BME280;46716;38.014;-7.874;2022-08-25T03:20:12;99911.38;;;19.15;92.15
60676;BME280;46716;38.014;-7.874;2022-08-25T03:22:13;99912.06;;;19.17;92.30
60676;BME280;46716;38.014;-7.874;2022-08-25T03:24:14;99889.97;;;19.15;92.07
60676;BME280;46716;38.014;-7.874;2022-08-25T03:26:15;99875.13;;;19.11;92.17
60676;BME280;46716;38.014;-7.874;2022-08-25T03:28:34;99896.41;;;19.13;92.29
60676;BME280;46716;38.014;-7.874;2022-08-25T03:30:36;99902.59;;;19.13;92.33
60676;BME280;46716;38.014;-7.874;2022-08-25T03:32:36;99896.78;;;19.08;92.61
60676;BME280;46716;38.014;-7.874;2022-08-25T03:34:38;99892.66;;;19.04;92.66
60676;BME280;46716;38.014;-7.874;2022-08-25T03:36:38;99885.25;;;18.96;92.81
60676;BME280;46716;38.014;-7.874;2022-08-25T03:38:40;99898.75;;;18.94;93.02
60676;BME280;46716;38.014;-7.874;2022-08-25T03:40:41;99889.41;;;18.89;93.36
60676;BME280;46716;38.014;-7.874;2022-08-25T03:42:44;99893.16;;;18.86;93.93
60676;BME280;46716;38.014;-7.874;2022-08-25T03:44:46;99888.44;;;18.78;93.94
60676;BME280;46716;38.014;-7.874;2022-08-25T03:46:49;99895.34;;;18.81;94.46
60676;BME280;46716;38.014;-7.874;2022-08-25T03:48:51;99883.69;;;18.82;94.54
60676;BME280;46716;38.014;-7.874;2022-08-25T03:50:53;99897.28;;;18.90;94.53
60676;BME280;46716;38.014;-7.874;2022-08-25T03:52:55;99895.44;;;18.91;94.62
60676;BME280;46716;38.014;-7.874;2022-08-25T03:54:56;99899.72;;;18.93;94.55
60676;BME280;46716;38.014;-7.874;2022-08-25T03:56:57;99885.50;;;18.93;94.52
60676;BME280;46716;38.014;-7.874;2022-08-25T03:58:59;99891.69;;;18.93;94.56
60676;BME280;46716;38.014;-7.874;2022-08-25T04:01:00;99884.63;;;18.92;94.77
60676;BME280;46716;38.014;-7.874;2022-08-25T04:03:01;99891.16;;;19.00;94.50
60676;BME280;46716;38.014;-7.874;2022-08-25T04:05:02;99896.28;;;19.03;94.66
60676;BME280;46716;38.014;-7.874;2022-08-25T04:07:03;99898.00;;;19.04;94.41
60676;BME280;46716;38.014;-7.874;2022-08-25T04:09:05;99900.19;;;19.10;94.33
60676;BME280;46716;38.014;-7.874;2022-08-25T04:11:08;99888.53;;;19.11;93.93
60676;BME280;46716;38.014;-7.874;2022-08-25T04:13:09;99882.31;;;19.11;93.91
60676;BME280;46716;38.014;-7.874;2022-08-25T04:15:11;99892.16;;;19.10;93.61
60676;BME280;46716;38.014;-7.874;2022-08-25T04:17:12;99892.63;;;19.15;93.71
60676;BME280;46716;38.014;-7.874;2022-08-25T04:19:13;99879.63;;;19.11;93.88
60676;BME280;46716;38.014;-7.874;2022-08-25T04:21:15;99885.31;;;19.17;93.69
60676;BME280;46716;38.014;-7.874;2022-08-25T04:23:17;99884.94;;;19.22;93.59
60676;BME280;46716;38.014;-7.874;2022-08-25T04:25:17;99881.19;;;19.25;93.52
60676;BME280;46716;38.014;-7.874;2022-08-25T04:27:18;99884.91;;;19.33;93.47
60676;BME280;46716;38.014;-7.874;2022-08-25T04:29:21;99881.84;;;19.38;93.05
60676;BME280;46716;38.014;-7.874;2022-08-25T04:31:23;99870.66;;;19.33;92.73
60676;BME280;46716;38.014;-7.874;2022-08-25T04:33:23;99886.78;;;19.43;92.73
60676;BME280;46716;38.014;-7.874;2022-08-25T04:35:24;99869.56;;;19.36;92.23
60676;BME280;46716;38.014;-7.874;2022-08-25T04:37:25;99883.16;;;19.44;92.22
60676;BME280;46716;38.014;-7.874;2022-08-25T04:39:27;99877.69;;;19.45;92.26
60676;BME280;46716;38.014;-7.874;2022-08-25T04:41:28;99880.63;;;19.42;92.31
60676;BME280;46716;38.014;-7.874;2022-08-25T04:43:30;99875.50;;;19.39;92.09
60676;BME280;46716;38.014;-7.874;2022-08-25T04:45:36;99882.69;;;19.39;92.13
60676;BME280;46716;38.014;-7.874;2022-08-25T04:47:38;99876.09;;;19.43;92.21
60676;BME280;46716;38.014;-7.874;2022-08-25T04:49:39;99875.38;;;19.41;92.38
60676;BME280;46716;38.014;-7.874;2022-08-25T04:51:40;99879.63;;;19.43;92.11
60676;BME280;46716;38.014;-7.874;2022-08-25T04:53:41;99864.56;;;19.42;92.12
60676;BME280;46716;38.014;-7.874;2022-08-25T04:55:45;99872.19;;;19.47;92.02
60676;BME280;46716;38.014;-7.874;2022-08-25T04:57:46;99860.88;;;19.43;92.08
60676;BME280;46716;38.014;-7.874;2022-08-25T04:59:47;99872.06;;;19.49;91.94
60676;BME280;46716;38.014;-7.874;2022-08-25T05:01:48;99875.72;;;19.48;92.03
60676;BME280;46716;38.014;-7.874;2022-08-25T05:03:59;99873.03;;;19.48;91.94
60676;BME280;46716;38.014;-7.874;2022-08-25T05:06:01;99880.81;;;19.51;91.93
60676;BME280;46716;38.014;-7.874;2022-08-25T05:08:03;99878.00;;;19.52;91.80
60676;BME280;46716;38.014;-7.874;2022-08-25T05:10:04;99882.38;;;19.53;91.60
60676;BME280;46716;38.014;-7.874;2022-08-25T05:12:05;99884.78;;;19.56;91.58
60676;BME280;46716;38.014;-7.874;2022-08-25T05:14:07;99885.78;;;19.55;91.60
60676;BME280;46716;38.014;-7.874;2022-08-25T05:16:11;99883.69;;;19.59;91.47
60676;BME280;46716;38.014;-7.874;2022-08-25T05:18:12;99887.06;;;19.61;91.88
60676;BME280;46716;38.014;-7.874;2022-08-25T05:20:13;99887.81;;;19.63;91.48
60676;BME280;46716;38.014;-7.874;2022-08-25T05:22:14;99877.81;;;19.65;91.21
60676;BME280;46716;38.014;-7.874;2022-08-25T05:24:15;99874.03;;;19.68;91.12
60676;BME280;46716;38.014;-7.874;2022-08-25T05:26:20;99881.69;;;19.73;90.98
60676;BME280;46716;38.014;-7.874;2022-08-25T05:28:21;99889.44;;;19.76;90.71
60676;BME280;46716;38.014;-7.874;2022-08-25T05:30:23;99880.44;;;19.77;90.83
60676;BME280;46716;38.014;-7.874;2022-08-25T05:32:23;99880.44;;;19.77;90.81
60676;BME280;46716;38.014;-7.874;2022-08-25T05:34:24;99875.78;;;19.79;90.71
60676;BME280;46716;38.014;-7.874;2022-08-25T05:36:26;99892.19;;;19.86;90.84
60676;BME280;46716;38.014;-7.874;2022-08-25T05:38:28;99887.66;;;19.86;91.02
60676;BME280;46716;38.014;-7.874;2022-08-25T05:40:29;99889.13;;;19.90;90.51
60676;BME280;46716;38.014;-7.874;2022-08-25T05:42:30;99883.03;;;19.88;90.54
60676;BME280;46716;38.014;-7.874;2022-08-25T05:44:31;99897.59;;;19.95;90.44
60676;BME280;46716;38.014;-7.874;2022-08-25T05:46:32;99893.50;;;19.91;90.36
60676;BME280;46716;38.014;-7.874;2022-08-25T05:48:34;99900.53;;;19.92;90.22
60676;BME280;46716;38.014;-7.874;2022-08-25T05:50:36;99904.81;;;19.95;90.63
60676;BME280;46716;38.014;-7.874;2022-08-25T05:52:37;99899.28;;;19.96;90.41
60676;BME280;46716;38.014;-7.874;2022-08-25T05:54:38;99908.91;;;19.99;90.27
60676;BME280;46716;38.014;-7.874;2022-08-25T05:56:42;99907.94;;;20.00;90.17
60676;BME280;46716;38.014;-7.874;2022-08-25T05:58:45;99909.75;;;20.00;90.19
60676;BME280;46716;38.014;-7.874;2022-08-25T06:00:46;99906.13;;;20.01;90.05
60676;BME280;46716;38.014;-7.874;2022-08-25T06:02:47;99907.69;;;20.03;89.96
60676;BME280;46716;38.014;-7.874;2022-08-25T06:04:49;99916.47;;;20.05;89.89
60676;BME280;46716;38.014;-7.874;2022-08-25T06:06:50;99911.94;;;20.06;89.85
60676;BME280;46716;38.014;-7.874;2022-08-25T06:08:54;99916.34;;;20.07;90.07
60676;BME280;46716;38.014;-7.874;2022-08-25T06:10:55;99921.41;;;20.10;89.79
60676;BME280;46716;38.014;-7.874;2022-08-25T06:12:56;99910.25;;;20.05;89.71
60676;BME280;46716;38.014;-7.874;2022-08-25T06:14:57;99918.84;;;20.08;89.60
60676;BME280;46716;38.014;-7.874;2022-08-25T06:16:58;99925.94;;;20.09;89.70
60676;BME280;46716;38.014;-7.874;2022-08-25T06:19:00;99930.16;;;20.12;89.88
60676;BME280;46716;38.014;-7.874;2022-08-25T06:21:13;99929.31;;;20.12;89.67
60676;BME280;46716;38.014;-7.874;2022-08-25T06:23:15;99936.97;;;20.16;89.67
60676;BME280;46716;38.014;-7.874;2022-08-25T06:25:21;99939.78;;;20.15;89.54
60676;BME280;46716;38.014;-7.874;2022-08-25T06:27:22;99933.72;;;20.13;89.16
60676;BME280;46716;38.014;-7.874;2022-08-25T06:29:23;99943.75;;;20.20;89.18
60676;BME280;46716;38.014;-7.874;2022-08-25T06:31:26;99952.53;;;20.22;89.19
60676;BME280;46716;38.014;-7.874;2022-08-25T06:33:27;99933.31;;;20.17;88.75
60676;BME280;46716;38.014;-7.874;2022-08-25T06:35:28;99951.41;;;20.25;88.74
60676;BME280;46716;38.014;-7.874;2022-08-25T06:37:29;99942.78;;;20.21;88.50
60676;BME280;46716;38.014;-7.874;2022-08-25T06:39:30;99953.00;;;20.28;88.70
60676;BME280;46716;38.014;-7.874;2022-08-25T06:41:31;99956.22;;;20.31;88.50
60676;BME280;46716;38.014;-7.874;2022-08-25T06:43:33;99941.41;;;20.27;88.37
60676;BME280;46716;38.014;-7.874;2022-08-25T06:45:34;99955.13;;;20.34;88.20
60676;BME280;46716;38.014;-7.874;2022-08-25T06:47:35;99955.13;;;20.34;88.21
60676;BME280;46716;38.014;-7.874;2022-08-25T06:49:36;99939.03;;;20.34;88.25
60676;BME280;46716;38.014;-7.874;2022-08-25T06:51:38;99953.31;;;20.44;88.30
60676;BME280;46716;38.014;-7.874;2022-08-25T06:53:39;99943.78;;;20.52;88.01
60676;BME280;46716;38.014;-7.874;2022-08-25T06:55:40;99953.25;;;20.56;87.56
60676;BME280;46716;38.014;-7.874;2022-08-25T06:57:41;99950.03;;;20.62;87.39
60676;BME280;46716;38.014;-7.874;2022-08-25T06:59:42;99944.56;;;20.64;86.93
60676;BME280;46716;38.014;-7.874;2022-08-25T07:01:44;99953.63;;;20.72;86.57
60676;BME280;46716;38.014;-7.874;2022-08-25T07:03:45;99946.25;;;20.75;86.36
60676;BME280;46716;38.014;-7.874;2022-08-25T07:05:51;99954.38;;;20.84;86.13
60676;BME280;46716;38.014;-7.874;2022-08-25T07:07:52;99948.69;;;20.88;85.39
60676;BME280;46716;38.014;-7.874;2022-08-25T07:09:53;99943.94;;;20.91;84.79
60676;BME280;46716;38.014;-7.874;2022-08-25T07:11:54;99945.38;;;20.95;84.85
60676;BME280;46716;38.014;-7.874;2022-08-25T07:13:55;99945.50;;;20.94;84.31
60676;BME280;46716;38.014;-7.874;2022-08-25T07:15:56;99956.56;;;21.01;83.93
60676;BME280;46716;38.014;-7.874;2022-08-25T07:17:57;99952.00;;;21.01;83.70
60676;BME280;46716;38.014;-7.874;2022-08-25T07:19:58;99949.78;;;21.06;83.55
60676;BME280;46716;38.014;-7.874;2022-08-25T07:21:59;99963.22;;;21.16;83.32
60676;BME280;46716;38.014;-7.874;2022-08-25T07:24:04;99953.91;;;21.20;82.85
60676;BME280;46716;38.014;-7.874;2022-08-25T07:26:12;99955.59;;;21.21;82.96
60676;BME280;46716;38.014;-7.874;2022-08-25T07:28:15;99954.63;;;21.22;82.91
60676;BME280;46716;38.014;-7.874;2022-08-25T07:30:17;99962.25;;;21.27;83.08
60676;BME280;46716;38.014;-7.874;2022-08-25T07:32:18;99959.44;;;21.29;83.02
60676;BME280;46716;38.014;-7.874;2022-08-25T07:34:19;99967.22;;;21.32;82.90
60676;BME280;46716;38.014;-7.874;2022-08-25T07:36:38;99966.22;;;21.33;82.60
60676;BME280;46716;38.014;-7.874;2022-08-25T07:38:39;99967.22;;;21.32;82.71
60676;BME280;46716;38.014;-7.874;2022-08-25T07:40:40;99962.97;;;21.29;82.42
60676;BME280;46716;38.014;-7.874;2022-08-25T07:42:41;99965.81;;;21.28;82.63
60676;BME280;46716;38.014;-7.874;2022-08-25T07:44:42;99969.63;;;21.35;82.87
60676;BME280;46716;38.014;-7.874;2022-08-25T07:46:43;99969.34;;;21.38;82.82
60676;BME280;46716;38.014;-7.874;2022-08-25T07:48:44;99976.25;;;21.41;82.71
60676;BME280;46716;38.014;-7.874;2022-08-25T07:50:46;99975.13;;;21.43;82.72
60676;BME280;46716;38.014;-7.874;2022-08-25T07:52:48;99968.34;;;21.39;82.48
60676;BME280;46716;38.014;-7.874;2022-08-25T07:54:49;99969.75;;;21.43;82.50
60676;BME280;46716;38.014;-7.874;2022-08-25T07:56:53;99960.00;;;21.42;82.60
60676;BME280;46716;38.014;-7.874;2022-08-25T07:58:54;99960.00;;;21.52;82.57
60676;BME280;46716;38.014;-7.874;2022-08-25T08:00:55;99975.16;;;21.63;82.19
60676;BME280;46716;38.014;-7.874;2022-08-25T08:02:57;99972.72;;;21.70;81.95
60676;BME280;46716;38.014;-7.874;2022-08-25T08:04:58;99984.81;;;21.76;81.48
60676;BME280;46716;38.014;-7.874;2022-08-25T08:06:59;99974.75;;;21.78;81.24
60676;BME280;46716;38.014;-7.874;2022-08-25T08:09:02;99986.34;;;21.88;80.88
60676;BME280;46716;38.014;-7.874;2022-08-25T08:11:04;99974.44;;;21.91;80.63
60676;BME280;46716;38.014;-7.874;2022-08-25T08:13:05;99989.19;;;21.96;80.25
60676;BME280;46716;38.014;-7.874;2022-08-25T08:15:07;99994.28;;;22.00;80.08
60676;BME280;46716;38.014;-7.874;2022-08-25T08:17:08;99994.28;;;22.00;79.88
60676;BME280;46716;38.014;-7.874;2022-08-25T08:19:09;99990.72;;;21.99;79.86
60676;BME280;46716;38.014;-7.874;2022-08-25T08:21:17;99992.56;;;21.98;79.76
60676;BME280;46716;38.014;-7.874;2022-08-25T08:23:19;100006.00;;;21.98;79.72
60676;BME280;46716;38.014;-7.874;2022-08-25T08:25:20;99997.09;;;21.98;79.89
60676;BME280;46716;38.014;-7.874;2022-08-25T08:27:21;99991.88;;;21.96;79.92
60676;BME280;46716;38.014;-7.874;2022-08-25T08:29:23;99998.50;;;22.02;79.95
60676;BME280;46716;38.014;-7.874;2022-08-25T08:31:24;99999.19;;;22.04;79.68
60676;BME280;46716;38.014;-7.874;2022-08-25T08:33:26;99989.59;;;22.02;79.79
60676;BME280;46716;38.014;-7.874;2022-08-25T08:35:28;100006.44;;;22.04;79.81
60676;BME280;46716;38.014;-7.874;2022-08-25T08:37:29;99993.97;;;22.03;79.82
60676;BME280;46716;38.014;-7.874;2022-08-25T08:39:32;100004.00;;;22.10;79.83
60676;BME280;46716;38.014;-7.874;2022-08-25T08:46:21;100007.25;;;22.34;78.06
60676;BME280;46716;38.014;-7.874;2022-08-25T08:53:35;100007.47;;;22.60;76.29
60676;BME280;46716;38.014;-7.874;2022-08-25T08:55:47;100006.47;;;22.61;76.18
60676;BME280;46716;38.014;-7.874;2022-08-25T08:57:50;100015.81;;;22.67;76.31
60676;BME280;46716;38.014;-7.874;2022-08-25T08:59:59;100016.22;;;22.72;75.83
60676;BME280;46716;38.014;-7.874;2022-08-25T09:02:03;100019.88;;;22.81;75.53
60676;BME280;46716;38.014;-7.874;2022-08-25T09:04:14;100019.44;;;22.86;75.56
60676;BME280;46716;38.014;-7.874;2022-08-25T09:06:35;100019.81;;;22.91;75.36
60676;BME280;46716;38.014;-7.874;2022-08-25T09:08:39;100024.63;;;22.97;75.11
60676;BME280;46716;38.014;-7.874;2022-08-25T09:10:49;100021.63;;;23.01;75.02
60676;BME280;46716;38.014;-7.874;2022-08-25T09:15:24;100025.41;;;23.08;74.50
60676;BME280;46716;38.014;-7.874;2022-08-25T09:18:05;100029.34;;;23.14;74.31
60676;BME280;46716;38.014;-7.874;2022-08-25T09:26:46;100033.69;;;23.24;73.48
60676;BME280;46716;38.014;-7.874;2022-08-25T09:28:53;100029.84;;;23.27;73.27
60676;BME280;46716;38.014;-7.874;2022-08-25T09:31:12;100037.34;;;23.33;73.50
60676;BME280;46716;38.014;-7.874;2022-08-25T09:33:21;100035.91;;;23.39;73.38
60676;BME280;46716;38.014;-7.874;2022-08-25T09:35:26;100022.53;;;23.47;73.01
60676;BME280;46716;38.014;-7.874;2022-08-25T09:37:27;100022.63;;;23.56;73.00
60676;BME280;46716;38.014;-7.874;2022-08-25T09:39:28;100024.25;;;23.67;72.60
60676;BME280;46716;38.014;-7.874;2022-08-25T09:41:51;100030.25;;;23.79;72.15
60676;BME280;46716;38.014;-7.874;2022-08-25T09:43:53;100024.22;;;23.85;71.35
60676;BME280;46716;38.014;-7.874;2022-08-25T09:46:11;100039.63;;;23.93;71.33
60676;BME280;46716;38.014;-7.874;2022-08-25T09:48:31;100045.94;;;24.02;71.09
60676;BME280;46716;38.014;-7.874;2022-08-25T09:50:39;100041.63;;;24.09;70.72
60676;BME280;46716;38.014;-7.874;2022-08-25T09:52:40;100031.25;;;24.14;69.84
60676;BME280;46716;38.014;-7.874;2022-08-25T09:54:41;100031.16;;;24.24;69.68
60676;BME280;46716;38.014;-7.874;2022-08-25T09:56:59;100038.50;;;24.40;68.90
60676;BME280;46716;38.014;-7.874;2022-08-25T09:59:21;100026.19;;;24.64;68.44
60676;BME280;46716;38.014;-7.874;2022-08-25T10:01:23;100032.22;;;24.84;67.93
60676;BME280;46716;38.014;-7.874;2022-08-25T10:03:24;100029.66;;;25.09;67.07
60676;BME280;46716;38.014;-7.874;2022-08-25T10:05:26;100028.91;;;25.34;66.43
60676;BME280;46716;38.014;-7.874;2022-08-25T10:07:31;100043.84;;;25.63;65.67
60676;BME280;46716;38.014;-7.874;2022-08-25T10:09:40;100013.81;;;25.83;62.11
60676;BME280;46716;38.014;-7.874;2022-08-25T10:11:44;100021.56;;;25.94;62.69
60676;BME280;46716;38.014;-7.874;2022-08-25T10:13:49;100021.59;;;26.11;62.71
60676;BME280;46716;38.014;-7.874;2022-08-25T10:16:09;100021.38;;;26.54;61.55
60676;BME280;46716;38.014;-7.874;2022-08-25T10:18:28;100017.75;;;27.27;60.34
60676;BME280;46716;38.014;-7.874;2022-08-25T10:20:29;100011.44;;;27.90;58.30
60676;BME280;46716;38.014;-7.874;2022-08-25T10:22:30;100005.88;;;28.45;55.86
60676;BME280;46716;38.014;-7.874;2022-08-25T10:24:35;100015.63;;;28.85;54.60
60676;BME280;46716;38.014;-7.874;2022-08-25T10:34:02;99991.84;;;29.83;51.03
60676;BME280;46716;38.014;-7.874;2022-08-25T10:38:43;99992.47;;;30.28;50.22
60676;BME280;46716;38.014;-7.874;2022-08-25T10:41:01;99980.16;;;30.39;49.30
60676;BME280;46716;38.014;-7.874;2022-08-25T10:45:19;99976.81;;;30.37;47.72
60676;BME280;46716;38.014;-7.874;2022-08-25T10:54:45;99974.91;;;30.73;46.28
60676;BME280;46716;38.014;-7.874;2022-08-25T11:00:06;99977.59;;;31.09;47.45
60676;BME280;46716;38.014;-7.874;2022-08-25T11:03:58;99982.47;;;31.34;44.48
60676;BME280;46716;38.014;-7.874;2022-08-25T11:06:13;99970.72;;;31.26;45.39
60676;BME280;46716;38.014;-7.874;2022-08-25T11:08:46;99966.38;;;31.39;45.31
60676;BME280;46716;38.014;-7.874;2022-08-25T11:11:08;99964.53;;;31.60;45.25
60676;BME280;46716;38.014;-7.874;2022-08-25T11:16:08;99962.09;;;31.23;43.83
60676;BME280;46716;38.014;-7.874;2022-08-25T11:18:12;99963.56;;;31.12;44.60
60676;BME280;46716;38.014;-7.874;2022-08-25T11:20:18;99956.03;;;31.21;45.62
60676;BME280;46716;38.014;-7.874;2022-08-25T11:26:54;99952.31;;;31.55;43.56
60676;BME280;46716;38.014;-7.874;2022-08-25T11:31:06;99951.97;;;31.92;43.01
60676;BME280;46716;38.014;-7.874;2022-08-25T11:33:15;99943.31;;;32.02;42.92
60676;BME280;46716;38.014;-7.874;2022-08-25T11:35:44;99942.84;;;32.26;42.90
60676;BME280;46716;38.014;-7.874;2022-08-25T11:37:59;99940.72;;;32.55;42.88
60676;BME280;46716;38.014;-7.874;2022-08-25T11:44:46;99921.00;;;32.92;40.44